sensor_id;sensor_type;location;lat;lon;timestamp;temperature;humidity
19654;DHT22;9975;48.046;7.804;2022-10-17T01:57:40;11.40;99.90
19654;DHT22;9975;48.046;7.804;2022-10-17T02:00:12;11.40;99.90
19654;DHT22;9975;48.046;7.804;2022-10-17T02:02:40;11.40;99.90
19654;DHT22;9975;48.046;7.804;2022-10-17T02:05:08;11.40;99.90
19654;DHT22;9975;48.046;7.804;2022-10-17T02:07:34;11.40;99.90
19654;DHT22;9975;48.046;7.804;2022-10-17T02:10:00;11.40;99.90
19654;DHT22;9975;48.046;7.804;2022-10-17T02:27:08;11.40;99.90
19654;DHT22;9975;48.046;7.804;2022-10-17T02:29:48;11.40;99.90
19654;DHT22;9975;48.046;7.804;2022-10-17T02:32:31;11.30;99.90
19654;DHT22;9975;48.046;7.804;2022-10-17T02:35:00;11.30;99.90
19654;DHT22;9975;48.046;7.804;2022-10-17T02:37:28;11.30;99.90
19654;DHT22;9975;48.046;7.804;2022-10-17T02:39:57;11.30;99.90
19654;DHT22;9975;48.046;7.804;2022-10-17T02:42:25;11.20;99.90
19654;DHT22;9975;48.046;7.804;2022-10-17T02:44:53;11.20;99.90
19654;DHT22;9975;48.046;7.804;2022-10-17T02:47:24;11.20;99.90
19654;DHT22;9975;48.046;7.804;2022-10-17T02:49:53;11.20;99.90
19654;DHT22;9975;48.046;7.804;2022-10-17T02:52:48;11.20;99.90
19654;DHT22;9975;48.046;7.804;2022-10-17T02:55:18;11.20;99.90
19654;DHT22;9975;48.046;7.804;2022-10-17T02:58:04;11.20;99.90
19654;DHT22;9975;48.046;7.804;2022-10-17T03:00:31;11.10;99.90
19654;DHT22;9975;48.046;7.804;2022-10-17T03:02:57;11.10;99.90
19654;DHT22;9975;48.046;7.804;2022-10-17T03:05:25;11.10;99.90
19654;DHT22;9975;48.046;7.804;2022-10-17T03:07:52;11.10;99.90
19654;DHT22;9975;48.046;7.804;2022-10-17T03:10:18;11.10;99.90
19654;DHT22;9975;48.046;7.804;2022-10-17T03:12:44;11.10;99.90
19654;DHT22;9975;48.046;7.804;2022-10-17T03:15:10;11.10;99.90
19654;DHT22;9975;48.046;7.804;2022-10-17T03:17:36;11.10;99.90
19654;DHT22;9975;48.046;7.804;2022-10-17T03:20:03;11.10;99.90
19654;DHT22;9975;48.046;7.804;2022-10-17T03:22:29;11.00;99.90
19654;DHT22;9975;48.046;7.804;2022-10-17T03:24:55;11.00;99.90
19654;DHT22;9975;48.046;7.804;2022-10-17T03:27:21;11.00;99.90
19654;DHT22;9975;48.046;7.804;2022-10-17T03:29:46;10.90;99.90
19654;DHT22;9975;48.046;7.804;2022-10-17T03:32:12;10.90;99.90
19654;DHT22;9975;48.046;7.804;2022-10-17T03:34:38;10.90;99.90
19654;DHT22;9975;48.046;7.804;2022-10-17T03:37:03;10.90;99.90
19654;DHT22;9975;48.046;7.804;2022-10-17T03:39:29;10.90;99.90
19654;DHT22;9975;48.046;7.804;2022-10-17T03:41:55;10.90;99.90
19654;DHT22;9975;48.046;7.804;2022-10-17T03:44:20;10.90;99.90
19654;DHT22;9975;48.046;7.804;2022-10-17T03:46:46;10.90;99.90
19654;DHT22;9975;48.046;7.804;2022-10-17T03:49:12;10.90;99.90
19654;DHT22;9975;48.046;7.804;2022-10-17T03:51:37;10.80;99.90
19654;DHT22;9975;48.046;7.804;2022-10-17T03:54:03;10.80;99.90
19654;DHT22;9975;48.046;7.804;2022-10-17T03:56:29;10.90;99.90
19654;DHT22;9975;48.046;7.804;2022-10-17T03:58:54;10.80;99.90
19654;DHT22;9975;48.046;7.804;2022-10-17T04:01:21;10.80;99.90
19654;DHT22;9975;48.046;7.804;2022-10-17T04:03:51;10.80;99.90
19654;DHT22;9975;48.046;7.804;2022-10-17T04:06:18;10.80;99.90
19654;DHT22;9975;48.046;7.804;2022-10-17T04:08:44;10.80;99.90
19654;DHT22;9975;48.046;7.804;2022-10-17T04:11:14;10.80;99.90
19654;DHT22;9975;48.046;7.804;2022-10-17T04:13:39;10.80;99.90
19654;DHT22;9975;48.046;7.804;2022-10-17T04:16:09;10.70;99.90
19654;DHT22;9975;48.046;7.804;2022-10-17T04:18:34;10.80;99.90
19654;DHT22;9975;48.046;7.804;2022-10-17T04:21:01;10.80;99.90
19654;DHT22;9975;48.046;7.804;2022-10-17T04:23:27;10.80;99.90
19654;DHT22;9975;48.046;7.804;2022-10-17T04:25:57;10.80;99.90
19654;DHT22;9975;48.046;7.804;2022-10-17T04:28:24;10.80;99.90
19654;DHT22;9975;48.046;7.804;2022-10-17T04:31:07;10.70;99.90
19654;DHT22;9975;48.046;7.804;2022-10-17T04:33:34;10.70;99.90
19654;DHT22;9975;48.046;7.804;2022-10-17T04:36:11;10.70;99.90
19654;DHT22;9975;48.046;7.804;2022-10-17T04:38:37;10.60;99.90
19654;DHT22;9975;48.046;7.804;2022-10-17T04:41:06;10.70;99.90
19654;DHT22;9975;48.046;7.804;2022-10-17T04:43:35;10.70;99.90
19654;DHT22;9975;48.046;7.804;2022-10-17T04:46:04;10.70;99.90
19654;DHT22;9975;48.046;7.804;2022-10-17T04:48:30;10.70;99.90
19654;DHT22;9975;48.046;7.804;2022-10-17T04:51:01;10.70;99.90
19654;DHT22;9975;48.046;7.804;2022-10-17T04:53:30;10.70;99.90
19654;DHT22;9975;48.046;7.804;2022-10-17T04:55:55;10.60;99.90
19654;DHT22;9975;48.046;7.804;2022-10-17T04:58:21;10.50;99.90
19654;DHT22;9975;48.046;7.804;2022-10-17T05:00:47;10.50;99.90
19654;DHT22;9975;48.046;7.804;2022-10-17T05:03:13;10.50;99.90
19654;DHT22;9975;48.046;7.804;2022-10-17T05:05:40;10.40;99.90
19654;DHT22;9975;48.046;7.804;2022-10-17T05:08:07;10.40;99.90
19654;DHT22;9975;48.046;7.804;2022-10-17T05:10:42;10.40;99.90
19654;DHT22;9975;48.046;7.804;2022-10-17T05:13:08;10.40;99.90
19654;DHT22;9975;48.046;7.804;2022-10-17T05:15:35;10.40;99.90
19654;DHT22;9975;48.046;7.804;2022-10-17T05:18:01;10.40;99.90
19654;DHT22;9975;48.046;7.804;2022-10-17T05:20:28;10.40;99.90
19654;DHT22;9975;48.046;7.804;2022-10-17T05:22:54;10.40;99.90
19654;DHT22;9975;48.046;7.804;2022-10-17T05:25:19;10.50;99.90
19654;DHT22;9975;48.046;7.804;2022-10-17T05:27:45;10.40;99.90
19654;DHT22;9975;48.046;7.804;2022-10-17T05:30:11;10.40;99.90
19654;DHT22;9975;48.046;7.804;2022-10-17T05:32:37;10.40;99.90
19654;DHT22;9975;48.046;7.804;2022-10-17T05:35:03;10.40;99.90
19654;DHT22;9975;48.046;7.804;2022-10-17T05:37:30;10.40;99.90
19654;DHT22;9975;48.046;7.804;2022-10-17T05:39:56;10.40;99.90
19654;DHT22;9975;48.046;7.804;2022-10-17T05:42:22;10.50;99.90
19654;DHT22;9975;48.046;7.804;2022-10-17T05:44:48;10.50;99.90
19654;DHT22;9975;48.046;7.804;2022-10-17T05:47:13;10.40;99.90
19654;DHT22;9975;48.046;7.804;2022-10-17T05:49:39;10.40;99.90
19654;DHT22;9975;48.046;7.804;2022-10-17T05:52:04;10.30;99.90
19654;DHT22;9975;48.046;7.804;2022-10-17T05:54:30;10.30;99.90
19654;DHT22;9975;48.046;7.804;2022-10-17T05:56:56;10.40;99.90
19654;DHT22;9975;48.046;7.804;2022-10-17T05:59:24;10.30;99.90
19654;DHT22;9975;48.046;7.804;2022-10-17T06:01:50;10.30;99.90
19654;DHT22;9975;48.046;7.804;2022-10-17T06:04:16;10.30;99.90
19654;DHT22;9975;48.046;7.804;2022-10-17T06:06:42;10.30;99.90
19654;DHT22;9975;48.046;7.804;2022-10-17T06:09:07;10.30;99.90
19654;DHT22;9975;48.046;7.804;2022-10-17T06:11:34;10.30;99.90
19654;DHT22;9975;48.046;7.804;2022-10-17T06:14:03;10.30;99.90
19654;DHT22;9975;48.046;7.804;2022-10-17T06:16:29;10.30;99.90
19654;DHT22;9975;48.046;7.804;2022-10-17T06:18:54;10.30;99.90
19654;DHT22;9975;48.046;7.804;2022-10-17T06:21:24;10.30;99.90
19654;DHT22;9975;48.046;7.804;2022-10-17T06:23:50;10.40;99.90
19654;DHT22;9975;48.046;7.804;2022-10-17T06:26:16;10.40;99.90
19654;DHT22;9975;48.046;7.804;2022-10-17T06:28:42;10.40;99.90
19654;DHT22;9975;48.046;7.804;2022-10-17T06:31:14;10.50;99.90
19654;DHT22;9975;48.046;7.804;2022-10-17T06:33:40;10.60;99.90
19654;DHT22;9975;48.046;7.804;2022-10-17T06:36:07;10.60;99.90
19654;DHT22;9975;48.046;7.804;2022-10-17T06:38:33;10.70;99.90
19654;DHT22;9975;48.046;7.804;2022-10-17T06:41:17;10.70;99.90
19654;DHT22;9975;48.046;7.804;2022-10-17T06:43:45;10.80;99.90
19654;DHT22;9975;48.046;7.804;2022-10-17T06:46:12;11.00;99.90
19654;DHT22;9975;48.046;7.804;2022-10-17T06:48:37;11.00;99.90
19654;DHT22;9975;48.046;7.804;2022-10-17T06:51:04;11.10;99.90
19654;DHT22;9975;48.046;7.804;2022-10-17T06:53:32;11.20;99.90
19654;DHT22;9975;48.046;7.804;2022-10-17T06:55:58;11.20;99.90
19654;DHT22;9975;48.046;7.804;2022-10-17T06:58:34;11.30;99.90
19654;DHT22;9975;48.046;7.804;2022-10-17T07:01:02;11.50;99.90
19654;DHT22;9975;48.046;7.804;2022-10-17T07:03:28;11.60;99.90
19654;DHT22;9975;48.046;7.804;2022-10-17T07:05:55;11.70;99.90
19654;DHT22;9975;48.046;7.804;2022-10-17T07:08:21;11.80;99.90
19654;DHT22;9975;48.046;7.804;2022-10-17T07:10:46;11.90;99.90
19654;DHT22;9975;48.046;7.804;2022-10-17T07:13:12;12.00;99.90
19654;DHT22;9975;48.046;7.804;2022-10-17T07:15:39;12.10;99.90
19654;DHT22;9975;48.046;7.804;2022-10-17T07:18:04;12.20;99.90
19654;DHT22;9975;48.046;7.804;2022-10-17T07:20:30;12.30;99.90
19654;DHT22;9975;48.046;7.804;2022-10-17T07:22:56;12.30;99.90
19654;DHT22;9975;48.046;7.804;2022-10-17T07:25:22;12.50;99.90
19654;DHT22;9975;48.046;7.804;2022-10-17T07:27:49;12.60;99.90
19654;DHT22;9975;48.046;7.804;2022-10-17T07:30:15;12.60;99.90
19654;DHT22;9975;48.046;7.804;2022-10-17T07:32:41;12.70;99.90
19654;DHT22;9975;48.046;7.804;2022-10-17T07:35:07;12.80;99.90
19654;DHT22;9975;48.046;7.804;2022-10-17T07:37:33;13.00;99.90
19654;DHT22;9975;48.046;7.804;2022-10-17T07:39:58;13.10;99.90
19654;DHT22;9975;48.046;7.804;2022-10-17T07:42:24;13.20;99.90
19654;DHT22;9975;48.046;7.804;2022-10-17T07:44:50;13.30;99.90
19654;DHT22;9975;48.046;7.804;2022-10-17T07:47:16;13.40;99.90
19654;DHT22;9975;48.046;7.804;2022-10-17T07:49:41;13.60;99.90
19654;DHT22;9975;48.046;7.804;2022-10-17T07:52:13;13.60;99.90
19654;DHT22;9975;48.046;7.804;2022-10-17T07:54:39;13.70;99.90
19654;DHT22;9975;48.046;7.804;2022-10-17T07:57:05;13.80;99.90
19654;DHT22;9975;48.046;7.804;2022-10-17T07:59:35;14.00;99.90
19654;DHT22;9975;48.046;7.804;2022-10-17T08:02:02;14.10;99.90
19654;DHT22;9975;48.046;7.804;2022-10-17T08:04:28;14.20;99.90
19654;DHT22;9975;48.046;7.804;2022-10-17T08:06:54;14.30;99.90
19654;DHT22;9975;48.046;7.804;2022-10-17T08:09:20;14.40;99.90
19654;DHT22;9975;48.046;7.804;2022-10-17T08:11:46;14.50;99.90
19654;DHT22;9975;48.046;7.804;2022-10-17T08:14:12;14.50;99.90
19654;DHT22;9975;48.046;7.804;2022-10-17T08:16:39;14.60;99.90
19654;DHT22;9975;48.046;7.804;2022-10-17T08:19:05;14.70;99.90
19654;DHT22;9975;48.046;7.804;2022-10-17T08:21:31;14.80;99.90
19654;DHT22;9975;48.046;7.804;2022-10-17T08:23:56;15.00;99.90
19654;DHT22;9975;48.046;7.804;2022-10-17T08:26:22;15.00;99.90
19654;DHT22;9975;48.046;7.804;2022-10-17T08:28:48;15.10;99.90
19654;DHT22;9975;48.046;7.804;2022-10-17T08:31:16;15.20;99.90
19654;DHT22;9975;48.046;7.804;2022-10-17T08:33:46;15.30;99.90
19654;DHT22;9975;48.046;7.804;2022-10-17T08:36:14;15.40;99.90
19654;DHT22;9975;48.046;7.804;2022-10-17T08:38:40;15.60;99.90
19654;DHT22;9975;48.046;7.804;2022-10-17T08:44:50;15.70;99.90
19654;DHT22;9975;48.046;7.804;2022-10-17T08:47:28;15.90;99.90
19654;DHT22;9975;48.046;7.804;2022-10-17T08:50:01;15.90;99.90
19654;DHT22;9975;48.046;7.804;2022-10-17T08:52:48;16.00;99.90
19654;DHT22;9975;48.046;7.804;2022-10-17T08:55:28;16.00;99.90
19654;DHT22;9975;48.046;7.804;2022-10-17T08:57:56;16.10;99.90
19654;DHT22;9975;48.046;7.804;2022-10-17T09:00:22;16.30;99.90
19654;DHT22;9975;48.046;7.804;2022-10-17T09:06:24;16.50;99.90
19654;DHT22;9975;48.046;7.804;2022-10-17T09:11:47;16.90;99.90
19654;DHT22;9975;48.046;7.804;2022-10-17T09:17:07;17.20;99.90
19654;DHT22;9975;48.046;7.804;2022-10-17T09:19:44;17.30;99.90
19654;DHT22;9975;48.046;7.804;2022-10-17T09:22:20;17.40;99.90
19654;DHT22;9975;48.046;7.804;2022-10-17T09:27:46;17.80;99.90
19654;DHT22;9975;48.046;7.804;2022-10-17T09:32:56;18.10;99.90
19654;DHT22;9975;48.046;7.804;2022-10-17T09:35:22;18.30;99.90
19654;DHT22;9975;48.046;7.804;2022-10-17T09:37:48;18.50;99.90
19654;DHT22;9975;48.046;7.804;2022-10-17T09:40:29;18.70;99.90
19654;DHT22;9975;48.046;7.804;2022-10-17T09:42:58;19.00;99.90
19654;DHT22;9975;48.046;7.804;2022-10-17T09:45:25;19.10;99.90
19654;DHT22;9975;48.046;7.804;2022-10-17T09:48:07;19.30;99.90
19654;DHT22;9975;48.046;7.804;2022-10-17T09:50:35;19.50;99.90
19654;DHT22;9975;48.046;7.804;2022-10-17T09:53:38;19.70;99.90
19654;DHT22;9975;48.046;7.804;2022-10-17T09:56:12;20.00;99.90
19654;DHT22;9975;48.046;7.804;2022-10-17T09:58:50;20.20;99.90
19654;DHT22;9975;48.046;7.804;2022-10-17T10:01:24;20.60;99.90
19654;DHT22;9975;48.046;7.804;2022-10-17T10:04:13;20.60;99.90
19654;DHT22;9975;48.046;7.804;2022-10-17T10:06:40;20.90;99.90
19654;DHT22;9975;48.046;7.804;2022-10-17T10:09:21;21.20;99.90
19654;DHT22;9975;48.046;7.804;2022-10-17T10:14:29;21.80;99.90
19654;DHT22;9975;48.046;7.804;2022-10-17T10:16:58;22.10;99.90
19654;DHT22;9975;48.046;7.804;2022-10-17T10:19:28;22.40;99.90
19654;DHT22;9975;48.046;7.804;2022-10-17T10:22:16;22.80;99.90
19654;DHT22;9975;48.046;7.804;2022-10-17T10:24:42;23.20;99.90
19654;DHT22;9975;48.046;7.804;2022-10-17T10:27:16;23.30;99.90
19654;DHT22;9975;48.046;7.804;2022-10-17T10:29:48;23.70;99.90
19654;DHT22;9975;48.046;7.804;2022-10-17T10:32:25;24.00;98.90
19654;DHT22;9975;48.046;7.804;2022-10-17T10:35:00;24.20;97.90
19654;DHT22;9975;48.046;7.804;2022-10-17T10:37:42;24.40;97.00
19654;DHT22;9975;48.046;7.804;2022-10-17T10:42:58;24.80;94.60
19654;DHT22;9975;48.046;7.804;2022-10-17T10:45:39;25.20;92.20
19654;DHT22;9975;48.046;7.804;2022-10-17T10:48:35;25.50;90.90
19654;DHT22;9975;48.046;7.804;2022-10-17T10:51:14;25.80;89.60
19654;DHT22;9975;48.046;7.804;2022-10-17T10:56:41;26.20;82.70
19654;DHT22;9975;48.046;7.804;2022-10-17T10:59:13;26.10;80.30
19654;DHT22;9975;48.046;7.804;2022-10-17T11:02:01;26.20;79.40
19654;DHT22;9975;48.046;7.804;2022-10-17T11:12:55;27.20;74.10
19654;DHT22;9975;48.046;7.804;2022-10-17T11:15:34;27.20;68.50
19654;DHT22;9975;48.046;7.804;2022-10-17T11:18:07;27.50;68.50
19654;DHT22;9975;48.046;7.804;2022-10-17T11:23:27;27.60;62.20
19654;DHT22;9975;48.046;7.804;2022-10-17T11:25:56;27.70;61.90
19654;DHT22;9975;48.046;7.804;2022-10-17T11:28:24;27.70;61.30
19654;DHT22;9975;48.046;7.804;2022-10-17T11:30:58;27.40;59.90
19654;DHT22;9975;48.046;7.804;2022-10-17T11:33:51;27.40;59.40
19654;DHT22;9975;48.046;7.804;2022-10-17T11:36:20;27.60;59.90
19654;DHT22;9975;48.046;7.804;2022-10-17T11:41:33;27.30;57.80
19654;DHT22;9975;48.046;7.804;2022-10-17T11:44:30;27.40;57.70
19654;DHT22;9975;48.046;7.804;2022-10-17T11:47:28;27.60;56.70
19654;DHT22;9975;48.046;7.804;2022-10-17T11:52:51;27.90;55.90
19654;DHT22;9975;48.046;7.804;2022-10-17T12:03:30;27.90;54.50
19654;DHT22;9975;48.046;7.804;2022-10-17T12:11:58;27.90;52.30
19654;DHT22;9975;48.046;7.804;2022-10-17T12:14:41;28.00;52.50
19654;DHT22;9975;48.046;7.804;2022-10-17T12:17:32;28.10;51.40
19654;DHT22;9975;48.046;7.804;2022-10-17T12:22:51;28.00;51.40
19654;DHT22;9975;48.046;7.804;2022-10-17T12:27:47;28.00;50.70
19654;DHT22;9975;48.046;7.804;2022-10-17T12:30:24;28.20;50.10
19654;DHT22;9975;48.046;7.804;2022-10-17T12:33:10;28.50;50.20
19654;DHT22;9975;48.046;7.804;2022-10-17T12:35:41;28.70;49.20
19654;DHT22;9975;48.046;7.804;2022-10-17T12:45:49;28.90;48.20
19654;DHT22;9975;48.046;7.804;2022-10-17T12:53:28;28.00;48.00
19654;DHT22;9975;48.046;7.804;2022-10-17T12:56:00;28.20;48.20
19654;DHT22;9975;48.046;7.804;2022-10-17T12:58:26;28.50;48.60
19654;DHT22;9975;48.046;7.804;2022-10-17T13:00:54;28.80;47.30
19654;DHT22;9975;48.046;7.804;2022-10-17T13:03:33;29.10;48.20
19654;DHT22;9975;48.046;7.804;2022-10-17T13:06:02;28.70;47.60
19654;DHT22;9975;48.046;7.804;2022-10-17T13:08:36;28.90;47.50
19654;DHT22;9975;48.046;7.804;2022-10-17T13:11:04;29.00;47.60
19654;DHT22;9975;48.046;7.804;2022-10-17T13:13:51;29.10;46.20
19654;DHT22;9975;48.046;7.804;2022-10-17T13:16:37;28.70;46.30
19654;DHT22;9975;48.046;7.804;2022-10-17T13:19:16;28.50;46.90
19654;DHT22;9975;48.046;7.804;2022-10-17T13:21:55;28.10;47.20
19654;DHT22;9975;48.046;7.804;2022-10-17T13:24:34;27.90;46.90
19654;DHT22;9975;48.046;7.804;2022-10-17T13:27:01;27.60;47.00
19654;DHT22;9975;48.046;7.804;2022-10-17T13:29:27;27.70;47.70
19654;DHT22;9975;48.046;7.804;2022-10-17T13:31:57;27.80;47.80
19654;DHT22;9975;48.046;7.804;2022-10-17T13:34:26;28.10;47.80
19654;DHT22;9975;48.046;7.804;2022-10-17T13:37:05;27.70;47.10
19654;DHT22;9975;48.046;7.804;2022-10-17T13:39:37;27.90;47.80
19654;DHT22;9975;48.046;7.804;2022-10-17T13:42:04;28.00;47.50
19654;DHT22;9975;48.046;7.804;2022-10-17T13:44:34;27.80;47.90
19654;DHT22;9975;48.046;7.804;2022-10-17T13:47:01;27.90;47.60
19654;DHT22;9975;48.046;7.804;2022-10-17T13:49:41;27.80;47.50
19654;DHT22;9975;48.046;7.804;2022-10-17T13:52:19;27.80;47.20
19654;DHT22;9975;48.046;7.804;2022-10-17T13:54:51;28.30;47.60
19654;DHT22;9975;48.046;7.804;2022-10-17T13:57:20;28.40;46.50
19654;DHT22;9975;48.046;7.804;2022-10-17T13:59:54;27.80;46.70
19654;DHT22;9975;48.046;7.804;2022-10-17T14:02:29;28.10;47.20
19654;DHT22;9975;48.046;7.804;2022-10-17T14:07:58;28.20;47.40
19654;DHT22;9975;48.046;7.804;2022-10-17T14:10:25;28.30;47.80
19654;DHT22;9975;48.046;7.804;2022-10-17T14:12:52;28.50;46.40
19654;DHT22;9975;48.046;7.804;2022-10-17T14:15:21;28.00;47.30
19654;DHT22;9975;48.046;7.804;2022-10-17T14:17:57;27.90;47.30
19654;DHT22;9975;48.046;7.804;2022-10-17T14:20:23;27.90;47.50
19654;DHT22;9975;48.046;7.804;2022-10-17T14:22:50;27.80;48.00
19654;DHT22;9975;48.046;7.804;2022-10-17T14:25:30;27.90;48.30
19654;DHT22;9975;48.046;7.804;2022-10-17T14:30:40;28.10;48.20
19654;DHT22;9975;48.046;7.804;2022-10-17T14:36:36;28.10;47.80
19654;DHT22;9975;48.046;7.804;2022-10-17T14:39:07;27.60;49.10
19654;DHT22;9975;48.046;7.804;2022-10-17T14:41:43;27.40;48.70
19654;DHT22;9975;48.046;7.804;2022-10-17T14:44:28;27.70;48.30
19654;DHT22;9975;48.046;7.804;2022-10-17T14:46:58;27.60;48.90
19654;DHT22;9975;48.046;7.804;2022-10-17T14:49:31;27.70;49.10
19654;DHT22;9975;48.046;7.804;2022-10-17T14:54:42;27.40;49.30
19654;DHT22;9975;48.046;7.804;2022-10-17T14:59:43;27.30;49.70
19654;DHT22;9975;48.046;7.804;2022-10-17T15:02:09;27.00;49.60
19654;DHT22;9975;48.046;7.804;2022-10-17T15:04:35;27.20;49.70
19654;DHT22;9975;48.046;7.804;2022-10-17T15:07:01;27.40;50.20
19654;DHT22;9975;48.046;7.804;2022-10-17T15:09:27;27.40;49.90
19654;DHT22;9975;48.046;7.804;2022-10-17T15:11:59;27.40;50.80
19654;DHT22;9975;48.046;7.804;2022-10-17T15:14:28;27.60;50.50
19654;DHT22;9975;48.046;7.804;2022-10-17T15:16:54;27.20;50.10
19654;DHT22;9975;48.046;7.804;2022-10-17T15:19:20;27.30;50.70
19654;DHT22;9975;48.046;7.804;2022-10-17T15:21:51;27.30;50.90
19654;DHT22;9975;48.046;7.804;2022-10-17T15:24:16;27.10;51.00
19654;DHT22;9975;48.046;7.804;2022-10-17T15:26:42;27.10;51.30
19654;DHT22;9975;48.046;7.804;2022-10-17T15:29:14;27.10;50.70
19654;DHT22;9975;48.046;7.804;2022-10-17T15:31:40;27.00;50.60
19654;DHT22;9975;48.046;7.804;2022-10-17T15:34:06;27.00;51.20
19654;DHT22;9975;48.046;7.804;2022-10-17T15:36:38;27.00;51.30
19654;DHT22;9975;48.046;7.804;2022-10-17T15:39:04;27.00;51.60
19654;DHT22;9975;48.046;7.804;2022-10-17T15:41:31;26.80;51.20
19654;DHT22;9975;48.046;7.804;2022-10-17T15:43:58;26.60;52.20
19654;DHT22;9975;48.046;7.804;2022-10-17T15:46:26;26.40;52.90
19654;DHT22;9975;48.046;7.804;2022-10-17T15:48:53;26.10;52.70
19654;DHT22;9975;48.046;7.804;2022-10-17T15:51:20;26.00;53.50
19654;DHT22;9975;48.046;7.804;2022-10-17T15:53:45;26.00;54.10
19654;DHT22;9975;48.046;7.804;2022-10-17T15:58:45;25.50;54.50
19654;DHT22;9975;48.046;7.804;2022-10-17T16:01:22;25.30;55.40
19654;DHT22;9975;48.046;7.804;2022-10-17T16:03:49;25.30;55.70
19654;DHT22;9975;48.046;7.804;2022-10-17T16:06:18;25.20;56.90
19654;DHT22;9975;48.046;7.804;2022-10-17T16:08:45;25.10;56.30
19654;DHT22;9975;48.046;7.804;2022-10-17T16:13:52;25.00;57.60
19654;DHT22;9975;48.046;7.804;2022-10-17T16:16:18;24.80;57.70
19654;DHT22;9975;48.046;7.804;2022-10-17T16:18:46;24.70;57.70
19654;DHT22;9975;48.046;7.804;2022-10-17T16:21:13;24.50;57.10
19654;DHT22;9975;48.046;7.804;2022-10-17T16:23:40;24.50;57.00
19654;DHT22;9975;48.046;7.804;2022-10-17T16:26:07;24.30;58.50
19654;DHT22;9975;48.046;7.804;2022-10-17T16:28:33;24.20;58.00
19654;DHT22;9975;48.046;7.804;2022-10-17T16:30:59;24.10;60.30
19654;DHT22;9975;48.046;7.804;2022-10-17T16:33:24;23.90;59.80
19654;DHT22;9975;48.046;7.804;2022-10-17T16:35:50;23.80;62.30
19654;DHT22;9975;48.046;7.804;2022-10-17T16:38:16;23.70;61.90
19654;DHT22;9975;48.046;7.804;2022-10-17T16:40:42;23.60;62.60
19654;DHT22;9975;48.046;7.804;2022-10-17T16:43:14;23.40;62.20
19654;DHT22;9975;48.046;7.804;2022-10-17T16:45:40;23.30;64.00
19654;DHT22;9975;48.046;7.804;2022-10-17T16:48:05;23.10;65.20
19654;DHT22;9975;48.046;7.804;2022-10-17T16:50:31;23.00;66.20
19654;DHT22;9975;48.046;7.804;2022-10-17T16:53:00;22.80;65.70
19654;DHT22;9975;48.046;7.804;2022-10-17T16:55:26;22.60;66.70
19654;DHT22;9975;48.046;7.804;2022-10-17T16:57:53;22.40;68.00
19654;DHT22;9975;48.046;7.804;2022-10-17T17:00:19;22.20;69.50
19654;DHT22;9975;48.046;7.804;2022-10-17T17:02:47;22.20;70.00
19654;DHT22;9975;48.046;7.804;2022-10-17T17:05:13;21.90;73.00
19654;DHT22;9975;48.046;7.804;2022-10-17T17:07:38;21.90;73.50
19654;DHT22;9975;48.046;7.804;2022-10-17T17:10:05;21.50;74.50
19654;DHT22;9975;48.046;7.804;2022-10-17T17:12:34;21.40;74.80
19654;DHT22;9975;48.046;7.804;2022-10-17T17:15:00;21.40;75.00
19654;DHT22;9975;48.046;7.804;2022-10-17T17:17:26;21.30;75.30
19654;DHT22;9975;48.046;7.804;2022-10-17T17:19:52;21.20;75.80
19654;DHT22;9975;48.046;7.804;2022-10-17T17:22:17;21.10;76.90
19654;DHT22;9975;48.046;7.804;2022-10-17T17:24:43;21.00;77.90
19654;DHT22;9975;48.046;7.804;2022-10-17T17:27:09;21.00;78.40
19654;DHT22;9975;48.046;7.804;2022-10-17T17:29:34;21.00;80.50
19654;DHT22;9975;48.046;7.804;2022-10-17T17:32:00;20.90;81.30
19654;DHT22;9975;48.046;7.804;2022-10-17T17:34:25;20.80;82.80
19654;DHT22;9975;48.046;7.804;2022-10-17T17:36:51;20.60;83.60
19654;DHT22;9975;48.046;7.804;2022-10-17T17:39:17;20.60;84.80
19654;DHT22;9975;48.046;7.804;2022-10-17T17:41:44;20.60;85.40
19654;DHT22;9975;48.046;7.804;2022-10-17T17:44:11;20.50;87.20
19654;DHT22;9975;48.046;7.804;2022-10-17T17:46:50;20.50;88.20
19654;DHT22;9975;48.046;7.804;2022-10-17T17:49:15;20.40;89.40
19654;DHT22;9975;48.046;7.804;2022-10-17T17:51:41;20.40;90.70
19654;DHT22;9975;48.046;7.804;2022-10-17T17:54:10;20.30;90.90
19654;DHT22;9975;48.046;7.804;2022-10-17T17:56:37;20.20;91.80
19654;DHT22;9975;48.046;7.804;2022-10-17T17:59:03;20.10;92.20
19654;DHT22;9975;48.046;7.804;2022-10-17T18:01:31;19.90;92.90
19654;DHT22;9975;48.046;7.804;2022-10-17T18:04:00;19.70;94.20
19654;DHT22;9975;48.046;7.804;2022-10-17T18:06:26;19.50;94.80
19654;DHT22;9975;48.046;7.804;2022-10-17T18:08:54;19.50;95.40
19654;DHT22;9975;48.046;7.804;2022-10-17T18:11:20;19.30;96.20
19654;DHT22;9975;48.046;7.804;2022-10-17T18:13:46;19.10;97.20
19654;DHT22;9975;48.046;7.804;2022-10-17T18:16:13;19.00;98.00
19654;DHT22;9975;48.046;7.804;2022-10-17T18:18:43;18.90;98.60
19654;DHT22;9975;48.046;7.804;2022-10-17T18:21:10;18.90;99.50
19654;DHT22;9975;48.046;7.804;2022-10-17T18:23:47;18.80;99.90
19654;DHT22;9975;48.046;7.804;2022-10-17T18:26:13;18.70;99.90
19654;DHT22;9975;48.046;7.804;2022-10-17T18:28:40;18.60;99.90
19654;DHT22;9975;48.046;7.804;2022-10-17T18:31:08;18.50;99.90
19654;DHT22;9975;48.046;7.804;2022-10-17T18:33:34;18.40;99.90
19654;DHT22;9975;48.046;7.804;2022-10-17T18:36:05;18.40;99.90
19654;DHT22;9975;48.046;7.804;2022-10-17T18:38:31;18.30;99.90
19654;DHT22;9975;48.046;7.804;2022-10-17T18:41:11;18.10;99.90
19654;DHT22;9975;48.046;7.804;2022-10-17T18:43:39;18.00;99.90
19654;DHT22;9975;48.046;7.804;2022-10-17T18:46:07;17.90;99.90
19654;DHT22;9975;48.046;7.804;2022-10-17T18:48:33;17.90;99.90
19654;DHT22;9975;48.046;7.804;2022-10-17T18:51:00;17.80;99.90
19654;DHT22;9975;48.046;7.804;2022-10-17T18:53:27;17.80;99.90
19654;DHT22;9975;48.046;7.804;2022-10-17T18:55:53;17.70;99.90
19654;DHT22;9975;48.046;7.804;2022-10-17T18:58:19;17.60;99.90
19654;DHT22;9975;48.046;7.804;2022-10-17T19:00:46;17.50;99.90
19654;DHT22;9975;48.046;7.804;2022-10-17T19:03:12;17.50;99.90
19654;DHT22;9975;48.046;7.804;2022-10-17T19:05:38;17.50;99.90
19654;DHT22;9975;48.046;7.804;2022-10-17T19:08:04;17.40;99.90
19654;DHT22;9975;48.046;7.804;2022-10-17T19:10:32;17.30;99.90
19654;DHT22;9975;48.046;7.804;2022-10-17T19:12:57;17.20;99.90
19654;DHT22;9975;48.046;7.804;2022-10-17T19:15:23;17.00;99.90
19654;DHT22;9975;48.046;7.804;2022-10-17T19:17:48;17.00;99.90
19654;DHT22;9975;48.046;7.804;2022-10-17T19:20:14;17.00;99.90
19654;DHT22;9975;48.046;7.804;2022-10-17T19:22:40;17.00;99.90
19654;DHT22;9975;48.046;7.804;2022-10-17T19:25:05;17.00;99.90
19654;DHT22;9975;48.046;7.804;2022-10-17T19:27:31;16.90;99.90
19654;DHT22;9975;48.046;7.804;2022-10-17T19:29:57;16.90;99.90
19654;DHT22;9975;48.046;7.804;2022-10-17T19:32:22;16.70;99.90
19654;DHT22;9975;48.046;7.804;2022-10-17T19:34:48;16.60;99.90
19654;DHT22;9975;48.046;7.804;2022-10-17T19:37:13;16.60;99.90
19654;DHT22;9975;48.046;7.804;2022-10-17T19:39:39;16.50;99.90
19654;DHT22;9975;48.046;7.804;2022-10-17T19:42:05;16.40;99.90
19654;DHT22;9975;48.046;7.804;2022-10-17T19:44:30;16.40;99.90